Time;durP1;ratioP1;P1;durP2;ratioP2;P2;SDS_P1;SDS_P2;PMS_P1;PMS_P2;Temp;Humidity;BMP_temperature;BMP_pressure;BME280_temperature;BME280_humidity;BME280_pressure;Samples;Min_cycle;Max_cycle;Signal;HPM_P1;HPM_P2
2022/01/04 00:00:18;;;;;;;47.50;29.92;;;;;;;6.07;90.95;98468.13;5033254;28;20826;-67
2022/01/04 00:02:44;;;;;;;46.70;29.95;;;;;;;5.72;91.10;98425.22;5015248;28;20029;-68
2022/01/04 00:05:10;;;;;;;46.85;29.98;;;;;;;6.03;91.30;98477.06;5004025;28;20033;-69
2022/01/04 00:07:36;;;;;;;48.00;30.85;;;;;;;6.03;91.18;98465.94;4990840;28;20087;-66
2022/01/04 00:10:03;;;;;;;47.10;30.25;;;;;;;6.09;90.82;98466.25;5014321;28;20073;-67
2022/01/04 00:15:12;;;;;;;46.13;30.60;;;;;;;5.91;91.93;98453.00;5041634;28;20053;-67
2022/01/04 00:17:38;;;;;;;47.13;30.33;;;;;;;6.00;91.37;98455.84;5016109;28;20500;-67
2022/01/04 00:20:05;;;;;;;50.17;31.67;;;;;;;5.82;91.59;98445.13;5031865;28;20037;-68
2022/01/04 00:22:31;;;;;;;50.15;31.42;;;;;;;5.84;91.46;98443.25;4986381;28;20806;-69
2022/01/04 00:24:56;;;;;;;47.08;31.13;;;;;;;5.93;92.68;98456.28;5024606;28;20021;-66
2022/01/04 00:27:22;;;;;;;48.00;30.38;;;;;;;5.93;91.91;98456.28;5017863;28;20757;-67
2022/01/04 00:29:47;;;;;;;45.60;30.55;;;;;;;6.00;91.76;98448.09;5049030;28;20045;-67
2022/01/04 00:32:13;;;;;;;51.10;31.40;;;;;;;5.85;91.03;98403.63;5014112;28;20638;-68
2022/01/04 00:34:38;;;;;;;51.35;32.13;;;;;;;5.99;91.74;98429.22;5031233;28;20037;-67
2022/01/04 00:37:04;;;;;;;50.47;31.60;;;;;;;5.97;91.59;98426.75;5013317;28;20466;-67
2022/01/04 00:39:29;;;;;;;54.45;32.08;;;;;;;6.02;91.39;98436.69;4998151;28;20543;-67
2022/01/04 00:41:55;;;;;;;50.35;32.88;;;;;;;6.01;91.47;98423.94;5031377;28;20026;-66
2022/01/04 00:44:20;;;;;;;47.53;31.83;;;;;;;5.75;91.15;98391.44;5019231;28;20121;-67
2022/01/04 00:46:46;;;;;;;48.78;31.75;;;;;;;5.96;91.65;98414.78;5029319;28;20029;-67
2022/01/04 00:49:11;;;;;;;47.80;30.98;;;;;;;5.96;92.14;98411.38;5020419;28;20064;-67
2022/01/04 00:51:43;;;;;;;48.88;30.58;;;;;;;5.83;91.03;98367.63;5018169;28;20025;-66
2022/01/04 00:54:09;;;;;;;48.65;30.95;;;;;;;5.99;91.11;98387.91;4980377;28;20034;-69
2022/01/04 00:56:35;;;;;;;50.60;31.88;;;;;;;5.71;91.96;98361.69;5003707;28;20040;-66
2022/01/04 00:59:01;;;;;;;45.90;31.00;;;;;;;5.97;92.24;98393.19;5031165;28;20542;-67
2022/01/04 01:01:27;;;;;;;48.38;31.63;;;;;;;5.69;92.04;98355.78;5048180;28;20048;-67
2022/01/04 01:03:52;;;;;;;49.15;32.30;;;;;;;5.78;92.28;98387.78;5003028;28;20071;-68
2022/01/04 01:06:18;;;;;;;51.83;33.78;;;;;;;5.52;92.53;98344.22;5001189;28;20045;-67
2022/01/04 01:08:44;;;;;;;50.05;31.92;;;;;;;5.76;92.48;98385.31;5019730;28;20029;-67
2022/01/04 01:11:10;;;;;;;48.60;31.17;;;;;;;5.83;92.49;98374.53;5029427;28;21344;-68
2022/01/04 01:13:35;;;;;;;52.05;32.25;;;;;;;5.67;92.43;98349.94;5009846;28;20090;-67
2022/01/04 01:16:01;;;;;;;49.78;32.20;;;;;;;5.80;93.97;98382.53;5043772;28;20033;-68
2022/01/04 01:18:27;;;;;;;49.75;32.33;;;;;;;5.78;93.57;98380.88;5033888;28;20090;-67
2022/01/04 01:20:53;;;;;;;49.15;32.60;;;;;;;5.56;93.66;98335.28;5000550;28;21183;-67
2022/01/04 01:23:19;;;;;;;50.65;33.17;;;;;;;5.71;94.32;98379.72;5006277;28;20041;-66
2022/01/04 01:25:45;;;;;;;49.95;32.95;;;;;;;5.50;94.32;98340.94;5038199;28;20379;-68
2022/01/04 01:28:12;;;;;;;52.75;34.47;;;;;;;5.71;95.35;98387.47;5020194;28;20049;-67
2022/01/04 01:30:40;;;;;;;49.95;33.95;;;;;;;5.75;95.27;98388.06;5045986;28;20033;-67
2022/01/04 01:33:06;;;;;;;50.90;33.95;;;;;;;5.89;94.23;98387.78;5021813;28;20037;-67
2022/01/04 01:35:33;;;;;;;53.05;33.10;;;;;;;5.95;93.96;98402.81;5036909;28;20033;-67
2022/01/04 01:37:59;;;;;;;53.03;34.08;;;;;;;5.63;93.68;98340.00;5012492;28;20045;-67
2022/01/04 01:40:24;;;;;;;52.97;33.15;;;;;;;5.92;94.23;98381.56;5003476;28;20056;-67
2022/01/04 01:42:50;;;;;;;52.78;33.47;;;;;;;5.90;93.80;98373.13;4997471;28;20099;-67
2022/01/04 01:45:16;;;;;;;51.90;32.58;;;;;;;5.95;93.88;98374.44;5007416;28;20025;-66
2022/01/04 01:47:43;;;;;;;53.10;33.05;;;;;;;5.74;94.70;98343.34;5050055;28;20044;-67
2022/01/04 01:50:11;;;;;;;51.53;32.67;;;;;;;5.90;94.04;98358.47;5053377;28;20028;-67
2022/01/04 01:52:37;;;;;;;51.95;33.80;;;;;;;5.78;94.39;98326.69;5049929;28;20032;-67
2022/01/04 01:55:04;;;;;;;49.22;32.20;;;;;;;5.90;94.46;98358.47;5019188;28;20036;-67
2022/01/04 01:57:29;;;;;;;49.50;32.97;;;;;;;5.80;95.08;98342.03;4970973;28;24518;-68
2022/01/04 01:59:55;;;;;;;48.35;31.42;;;;;;;5.96;95.17;98341.69;5013111;28;20420;-68
2022/01/04 02:02:20;;;;;;;47.60;32.70;;;;;;;5.56;94.63;98272.59;5016753;28;20028;-66
2022/01/04 02:04:45;;;;;;;50.40;33.80;;;;;;;5.98;94.39;98329.47;5047457;28;20116;-67
2022/01/04 02:07:11;;;;;;;51.78;33.55;;;;;;;6.00;94.76;98330.19;5017487;28;20045;-67
2022/01/04 02:09:40;;;;;;;47.97;32.53;;;;;;;6.07;94.82;98330.50;5019749;28;20491;-67
2022/01/04 02:12:07;;;;;;;50.37;33.03;;;;;;;5.92;95.28;98330.75;5021327;28;20033;-68
2022/01/04 02:14:33;;;;;;;50.72;34.47;;;;;;;5.91;95.00;98323.97;4991639;28;20410;-67
2022/01/04 02:16:58;;;;;;;52.90;33.63;;;;;;;5.89;95.28;98315.50;5018152;28;20539;-67
2022/01/04 02:19:24;;;;;;;50.97;33.38;;;;;;;5.90;95.22;98311.19;5019668;28;20796;-66
2022/01/04 02:21:50;;;;;;;49.55;32.05;;;;;;;5.95;94.81;98314.19;5018816;28;20029;-67
2022/01/04 02:24:15;;;;;;;49.58;32.30;;;;;;;5.90;94.55;98312.00;5000794;28;20033;-67
2022/01/04 02:26:41;;;;;;;51.38;32.80;;;;;;;5.64;94.26;98259.06;4998277;28;20029;-66
2022/01/04 02:29:07;;;;;;;50.88;33.05;;;;;;;5.79;94.53;98299.16;4997676;28;20679;-67
2022/01/04 02:31:34;;;;;;;55.22;34.08;;;;;;;5.87;94.49;98308.84;5001837;28;20473;-67
2022/01/04 02:33:59;;;;;;;50.67;33.65;;;;;;;5.84;95.40;98317.66;5001086;28;20034;-66
2022/01/04 02:36:25;;;;;;;51.33;33.17;;;;;;;5.82;95.02;98300.66;5053642;28;20028;-68
2022/01/04 02:38:51;;;;;;;57.75;36.13;;;;;;;5.75;95.87;98300.34;5018688;28;20404;-67
2022/01/04 02:41:16;;;;;;;53.28;34.25;;;;;;;5.45;95.57;98245.06;5001882;28;20262;-66
2022/01/04 02:43:42;;;;;;;56.90;35.53;;;;;;;5.84;95.92;98302.19;5018296;28;20439;-67
2022/01/04 02:46:07;;;;;;;54.95;35.53;;;;;;;5.79;96.05;98288.81;5012456;28;20267;-67
2022/01/04 02:48:40;;;;;;;52.40;35.90;;;;;;;5.87;96.46;98298.53;5021108;28;20042;-67
2022/01/04 02:51:06;;;;;;;52.05;33.53;;;;;;;5.78;96.89;98287.16;5016515;28;20218;-66
2022/01/04 02:53:31;;;;;;;52.30;34.50;;;;;;;5.85;96.62;98284.94;5022370;28;20038;-68
2022/01/04 02:55:57;;;;;;;51.20;34.03;;;;;;;5.53;96.73;98234.13;5056438;28;20037;-67
2022/01/04 02:58:22;;;;;;;46.42;32.67;;;;;;;5.95;96.02;98285.81;5021496;28;20033;-67
2022/01/04 03:00:47;;;;;;;44.92;31.60;;;;;;;5.83;95.68;98274.72;4979005;28;20038;-67
2022/01/04 03:03:13;;;;;;;49.42;31.75;;;;;;;5.85;95.93;98264.28;5003734;28;21524;-66
2022/01/04 03:05:38;;;;;;;44.05;29.13;;;;;;;5.88;94.88;98272.59;5018236;28;20542;-66
2022/01/04 03:08:04;;;;;;;43.58;30.60;;;;;;;5.80;94.29;98263.84;5055828;28;20033;-67
2022/01/04 03:10:29;;;;;;;33.80;23.27;;;;;;;5.92;94.48;98266.25;5050542;28;20042;-66
2022/01/04 03:12:55;;;;;;;40.63;29.08;;;;;;;5.91;93.21;98267.22;5051803;28;20048;-67
2022/01/04 03:15:20;;;;;;;40.50;27.48;;;;;;;5.61;92.30;98205.16;5018020;28;20038;-66
2022/01/04 03:17:46;;;;;;;41.72;27.65;;;;;;;5.92;92.08;98261.09;5016517;28;20032;-67
2022/01/04 03:20:11;;;;;;;40.15;28.70;;;;;;;5.90;91.02;98247.50;5017058;28;20479;-66
2022/01/04 03:22:37;;;;;;;38.50;27.13;;;;;;;5.68;90.30;98198.56;5024306;28;20025;-66
2022/01/04 03:25:03;;;;;;;42.95;26.92;;;;;;;6.03;89.70;98243.97;5019973;28;20072;-67
2022/01/04 03:27:29;;;;;;;39.28;26.25;;;;;;;5.77;90.40;98190.91;5023000;28;20306;-67
2022/01/04 03:29:55;;;;;;;39.95;26.27;;;;;;;6.08;89.97;98226.34;5018488;28;20029;-66
2022/01/04 03:32:20;;;;;;;36.92;24.48;;;;;;;5.72;89.45;98162.06;4993962;28;20020;-67
2022/01/04 03:34:45;;;;;;;36.40;26.08;;;;;;;6.07;89.37;98224.69;5038832;28;20029;-66
2022/01/04 03:37:11;;;;;;;36.13;25.48;;;;;;;6.11;89.48;98236.38;5022308;28;20539;-66
2022/01/04 03:39:36;;;;;;;35.50;25.33;;;;;;;6.13;90.04;98242.25;5017598;28;20095;-67
2022/01/04 03:42:03;;;;;;;34.85;25.23;;;;;;;6.22;90.00;98230.34;5018548;28;20499;-66
2022/01/04 03:44:28;;;;;;;38.17;25.63;;;;;;;6.21;90.55;98242.44;5014877;28;20130;-67
2022/01/04 03:46:56;;;;;;;35.20;24.83;;;;;;;5.87;90.94;98188.38;5010866;28;20057;-67
2022/01/04 03:49:23;;;;;;;35.67;25.23;;;;;;;6.19;90.86;98226.28;5014112;28;20025;-66
2022/01/04 03:51:49;;;;;;;35.85;25.35;;;;;;;6.15;90.75;98223.13;5052346;28;20037;-67
2022/01/04 03:54:15;;;;;;;38.78;26.13;;;;;;;6.11;90.91;98228.66;5053751;28;20222;-67
2022/01/04 03:56:40;;;;;;;36.03;26.55;;;;;;;6.02;91.00;98221.66;5051442;28;20306;-67
2022/01/04 03:59:06;;;;;;;36.50;25.30;;;;;;;6.13;91.22;98230.19;5034907;28;20037;-66
2022/01/04 04:01:31;;;;;;;35.35;25.05;;;;;;;6.15;90.57;98224.88;5005223;28;20040;-68
2022/01/04 04:03:57;;;;;;;40.08;25.50;;;;;;;6.05;90.68;98224.00;5024291;28;20037;-67
2022/01/04 04:06:22;;;;;;;34.42;24.52;;;;;;;6.15;90.71;98230.03;5020962;28;20463;-67
2022/01/04 04:08:48;;;;;;;32.40;23.85;;;;;;;6.08;90.34;98216.81;5021276;28;20041;-66
2022/01/04 04:11:14;;;;;;;34.72;24.58;;;;;;;6.17;90.69;98210.09;5021410;28;20038;-68
2022/01/04 04:13:39;;;;;;;34.15;24.25;;;;;;;6.15;90.04;98206.78;5024242;28;20470;-66
2022/01/04 04:16:05;;;;;;;32.08;23.90;;;;;;;6.15;89.45;98196.47;5053842;28;20033;-67
2022/01/04 04:18:30;;;;;;;35.50;25.33;;;;;;;6.24;89.93;98189.72;5015683;28;20030;-67
2022/01/04 04:20:55;;;;;;;33.72;24.40;;;;;;;6.16;89.99;98188.59;5014683;28;20033;-67
2022/01/04 04:23:21;;;;;;;35.78;24.90;;;;;;;6.09;89.77;98190.06;5033783;28;20107;-67
2022/01/04 04:25:46;;;;;;;32.05;23.08;;;;;;;6.11;89.52;98195.91;5020655;28;20431;-66
2022/01/04 04:28:12;;;;;;;34.28;24.88;;;;;;;6.18;89.36;98203.16;5003279;28;20030;-67
2022/01/04 04:30:37;;;;;;;35.90;23.58;;;;;;;5.86;88.40;98135.16;5053482;28;20128;-68
2022/01/04 04:33:03;;;;;;;30.23;21.88;;;;;;;6.17;88.46;98173.94;5018608;28;20105;-67
2022/01/04 04:35:30;;;;;;;34.03;23.15;;;;;;;6.16;88.18;98164.56;4948889;28;20025;-67
2022/01/04 04:37:59;;;;;;;33.67;22.65;;;;;;;6.26;87.71;98165.44;5019874;28;20390;-67
2022/01/04 04:40:25;;;;;;;36.17;22.67;;;;;;;6.21;88.15;98159.84;5050021;28;20029;-67
2022/01/04 04:42:50;;;;;;;32.88;22.80;;;;;;;6.23;88.32;98159.72;5054318;28;20040;-67
2022/01/04 04:45:16;;;;;;;32.40;22.58;;;;;;;5.92;88.10;98106.25;5003378;28;20714;-67
2022/01/04 04:47:41;;;;;;;31.15;22.40;;;;;;;6.23;87.86;98150.19;5055778;28;20037;-67
2022/01/04 04:50:08;;;;;;;30.67;20.45;;;;;;;6.40;87.23;98159.09;5030574;28;21498;-67
2022/01/04 04:52:33;;;;;;;31.10;22.13;;;;;;;6.27;87.82;98148.97;5007996;28;20022;-67
2022/01/04 04:54:59;;;;;;;36.38;23.92;;;;;;;6.29;88.45;98152.25;5033360;28;20712;-67
2022/01/04 04:57:24;;;;;;;30.02;21.98;;;;;;;6.25;89.28;98150.88;5049657;28;20117;-67
2022/01/04 04:59:50;;;;;;;34.70;24.38;;;;;;;6.25;89.71;98139.75;5020381;28;20056;-68
2022/01/04 05:02:15;;;;;;;33.65;23.05;;;;;;;6.00;89.44;98086.75;5010661;28;20038;-67
2022/01/04 05:04:41;;;;;;;32.78;22.23;;;;;;;6.25;89.08;98135.38;5049373;28;20427;-67
2022/01/04 05:07:06;;;;;;;32.90;22.60;;;;;;;6.28;88.89;98123.97;5019068;28;20041;-67
2022/01/04 05:09:31;;;;;;;32.17;22.20;;;;;;;6.32;88.43;98135.69;5054957;28;20030;-67
2022/01/04 05:11:57;;;;;;;34.40;22.70;;;;;;;6.10;87.45;98085.88;5054415;28;20026;-67
2022/01/04 05:14:22;;;;;;;32.83;22.17;;;;;;;6.41;87.92;98144.44;5028635;28;20025;-67
2022/01/04 05:16:48;;;;;;;30.27;21.73;;;;;;;6.50;86.94;98144.47;5020268;28;20079;-67
2022/01/04 05:19:14;;;;;;;30.45;22.05;;;;;;;6.40;88.17;98129.88;5022673;28;20029;-66
2022/01/04 05:21:40;;;;;;;31.60;22.23;;;;;;;6.43;88.26;98125.28;5025964;28;20068;-67
2022/01/04 05:24:05;;;;;;;30.65;22.50;;;;;;;6.43;88.49;98140.75;5034920;28;20025;-66
2022/01/04 05:26:32;;;;;;;32.80;22.83;;;;;;;6.38;88.36;98118.88;5054468;28;20036;-66
2022/01/04 05:28:58;;;;;;;31.27;23.10;;;;;;;6.35;89.65;98128.50;5023444;28;20025;-66
2022/01/04 05:31:24;;;;;;;35.72;23.90;;;;;;;6.32;89.42;98146.03;5012751;28;20040;-66
2022/01/04 05:33:49;;;;;;;31.55;24.30;;;;;;;6.25;89.62;98148.28;5022489;28;20059;-67
2022/01/04 05:36:15;;;;;;;34.40;24.73;;;;;;;6.18;89.96;98134.25;5018696;28;20025;-68
2022/01/04 05:38:40;;;;;;;35.17;25.55;;;;;;;6.22;89.56;98140.00;4966659;28;20044;-67
2022/01/04 05:41:06;;;;;;;32.20;22.98;;;;;;;6.00;89.94;98110.81;5016679;28;20116;-66
2022/01/04 05:43:31;;;;;;;33.08;24.20;;;;;;;6.21;89.98;98143.53;5055067;28;20492;-67
2022/01/04 05:45:57;;;;;;;33.40;24.80;;;;;;;5.99;89.80;98104.03;5006388;28;20114;-66
2022/01/04 05:48:22;;;;;;;32.95;24.05;;;;;;;6.23;89.54;98152.78;5020105;28;20061;-67
2022/01/04 05:50:49;;;;;;;35.50;24.55;;;;;;;6.22;89.42;98145.16;5053548;28;20045;-66
2022/01/04 05:53:14;;;;;;;34.50;24.80;;;;;;;6.22;89.34;98147.72;5001971;28;21328;-66
2022/01/04 05:55:40;;;;;;;35.95;24.63;;;;;;;5.95;89.97;98097.44;5049536;28;20041;-67
2022/01/04 05:58:05;;;;;;;33.65;24.23;;;;;;;6.24;89.61;98132.94;5021295;28;20038;-66
2022/01/04 06:00:30;;;;;;;33.92;24.77;;;;;;;6.33;89.42;98153.66;5035811;28;20025;-67
2022/01/04 06:02:58;;;;;;;34.75;24.52;;;;;;;6.00;88.98;98086.75;5044315;28;20042;-67
2022/01/04 06:05:24;;;;;;;36.15;25.13;;;;;;;6.24;89.10;98146.69;5000408;28;20964;-67
2022/01/04 06:07:49;;;;;;;37.42;25.02;;;;;;;5.82;89.98;98099.41;5048624;28;20047;-66
2022/01/04 06:10:15;;;;;;;40.65;26.77;;;;;;;5.74;90.77;98094.88;4989603;28;20029;-68
2022/01/04 06:15:11;;;;;;;35.50;25.80;;;;;;;5.95;90.87;98136.13;5016194;28;20030;-66
2022/01/04 06:17:42;;;;;;;37.15;25.83;;;;;;;5.83;91.98;98137.97;5014914;28;20053;-66
2022/01/04 06:20:21;;;;;;;42.00;27.20;;;;;;;5.80;91.76;98140.81;5045963;28;20025;-67
2022/01/04 06:22:47;;;;;;;38.92;25.95;;;;;;;5.87;91.67;98143.72;5016895;28;20014;-68
2022/01/04 06:25:15;;;;;;;38.95;25.67;;;;;;;5.63;91.84;98094.94;4985867;28;20973;-68
2022/01/04 06:27:42;;;;;;;38.83;27.60;;;;;;;5.84;91.55;98143.94;5044931;28;20025;-68
2022/01/04 06:30:08;;;;;;;42.25;27.58;;;;;;;5.90;91.37;98131.38;5034362;28;20107;-67
2022/01/04 06:32:35;;;;;;;37.88;27.30;;;;;;;5.75;91.71;98106.84;5011689;28;20037;-66
2022/01/04 06:35:01;;;;;;;41.72;28.67;;;;;;;5.88;91.46;98147.94;5052595;28;20112;-66
2022/01/04 06:37:26;;;;;;;41.03;29.05;;;;;;;5.83;92.10;98137.16;5013326;28;20105;-66
2022/01/04 06:39:52;;;;;;;38.63;27.50;;;;;;;5.83;91.95;98140.56;5010011;28;20087;-68
2022/01/04 06:42:17;;;;;;;42.67;28.15;;;;;;;5.43;92.68;98083.69;5016689;28;20327;-68
2022/01/04 06:44:43;;;;;;;40.40;28.02;;;;;;;5.78;92.49;98147.84;5025141;28;20547;-68
2022/01/04 06:47:09;;;;;;;41.08;28.48;;;;;;;5.73;92.34;98140.50;5032605;28;20659;-67
2022/01/04 06:49:35;;;;;;;39.83;28.05;;;;;;;5.76;93.24;98136.84;5036368;28;20104;-68
2022/01/04 06:52:00;;;;;;;41.88;27.55;;;;;;;5.77;92.29;98147.03;5016312;28;20053;-66
2022/01/04 06:54:26;;;;;;;41.47;26.95;;;;;;;5.86;92.42;98142.91;5018454;28;20027;-66
2022/01/04 06:56:51;;;;;;;38.50;26.67;;;;;;;5.67;92.54;98104.06;5038199;28;20574;-68
2022/01/04 06:59:17;;;;;;;40.10;26.75;;;;;;;5.92;92.27;98150.13;5021202;28;20907;-67
2022/01/04 07:01:43;;;;;;;36.85;25.60;;;;;;;5.94;92.35;98155.97;5025976;28;20030;-66
2022/01/04 07:04:09;;;;;;;45.83;27.95;;;;;;;5.71;91.06;98116.59;4969737;28;20079;-67
2022/01/04 07:06:35;;;;;;;40.30;26.33;;;;;;;6.01;91.45;98158.91;5003657;28;20029;-68
2022/01/04 07:09:01;;;;;;;39.75;26.92;;;;;;;6.04;91.30;98161.25;5048412;28;20109;-67
2022/01/04 07:11:26;;;;;;;38.42;26.95;;;;;;;6.04;91.23;98157.81;5047723;28;20052;-66
2022/01/04 07:13:53;;;;;;;43.13;27.20;;;;;;;6.02;91.71;98155.34;5016228;28;20029;-67
2022/01/04 07:16:18;;;;;;;41.53;27.85;;;;;;;5.76;91.92;98127.34;5013932;28;20136;-67
2022/01/04 07:18:47;;;;;;;40.45;27.63;;;;;;;5.87;92.98;98169.50;4992524;28;20416;-66
2022/01/04 07:21:13;;;;;;;42.50;29.58;;;;;;;5.83;94.07;98176.69;5032389;28;20542;-67
2022/01/04 07:23:39;;;;;;;45.00;28.77;;;;;;;5.92;93.38;98170.75;5029561;28;20600;-67
2022/01/04 07:26:04;;;;;;;44.63;29.55;;;;;;;5.93;93.99;98177.56;5020971;28;20040;-67
2022/01/04 07:28:31;;;;;;;43.35;28.83;;;;;;;5.89;94.27;98172.78;5035384;28;20041;-67
2022/01/04 07:30:57;;;;;;;41.55;29.00;;;;;;;5.92;93.93;98165.59;5052766;28;20028;-67
2022/01/04 07:33:22;;;;;;;43.10;29.30;;;;;;;5.95;93.37;98159.34;5015623;28;20026;-67
2022/01/04 07:35:47;;;;;;;42.60;29.25;;;;;;;5.74;93.37;98123.25;5043731;28;20155;-69
2022/01/04 07:38:13;;;;;;;42.97;29.75;;;;;;;6.03;93.31;98161.38;5020540;28;20106;-67
2022/01/04 07:40:38;;;;;;;42.97;29.52;;;;;;;6.07;92.99;98158.38;5020363;28;20033;-67
2022/01/04 07:43:04;;;;;;;43.92;29.05;;;;;;;5.84;93.83;98118.16;5048199;28;20064;-67
2022/01/04 07:45:30;;;;;;;41.42;30.13;;;;;;;6.13;93.34;98164.81;5044141;28;20469;-67
2022/01/04 07:47:56;;;;;;;43.80;30.98;;;;;;;6.04;94.04;98160.41;5012935;28;20451;-66
2022/01/04 07:50:22;;;;;;;42.15;29.98;;;;;;;5.76;94.04;98127.34;5020530;28;20411;-67
2022/01/04 07:52:47;;;;;;;44.38;30.48;;;;;;;6.05;94.37;98162.84;5022647;28;20430;-67
2022/01/04 07:55:13;;;;;;;45.78;30.83;;;;;;;6.02;94.31;98160.53;5048156;28;20037;-67
2022/01/04 07:57:40;;;;;;;47.03;31.92;;;;;;;5.69;93.86;98117.66;5020359;28;20041;-68
2022/01/04 08:00:07;;;;;;;48.92;31.08;;;;;;;5.68;94.22;98116.84;5023522;28;20044;-67
2022/01/04 08:02:32;;;;;;;43.15;30.80;;;;;;;5.89;94.57;98144.41;5016932;28;20065;-66
2022/01/04 08:04:58;;;;;;;47.80;31.83;;;;;;;5.97;94.70;98150.59;5013040;28;20092;-67
2022/01/04 08:07:23;;;;;;;43.30;30.58;;;;;;;5.92;94.92;98155.28;5019631;28;20025;-67
2022/01/04 08:09:48;;;;;;;45.65;31.20;;;;;;;5.55;95.51;98106.72;5048059;28;20097;-67
2022/01/04 08:12:14;;;;;;;41.13;28.77;;;;;;;5.72;95.21;98138.84;5055109;28;20456;-68
2022/01/04 08:14:39;;;;;;;43.92;29.90;;;;;;;5.77;95.39;98141.88;5018078;28;20417;-66
2022/01/04 08:17:05;;;;;;;39.80;29.45;;;;;;;5.59;96.48;98133.88;5018165;28;20022;-68
2022/01/04 08:19:30;;;;;;;41.42;30.55;;;;;;;5.50;95.86;98102.88;5017046;28;20055;-67
2022/01/04 08:21:56;;;;;;;41.88;30.27;;;;;;;5.66;96.29;98139.38;5021464;28;20029;-67
2022/01/04 08:24:21;;;;;;;45.45;30.55;;;;;;;5.73;96.51;98142.25;5026536;28;20095;-67
2022/01/04 08:26:47;;;;;;;44.10;31.30;;;;;;;5.58;96.08;98110.78;5024285;28;20033;-68
2022/01/04 08:29:12;;;;;;;47.42;30.60;;;;;;;5.85;96.36;98143.00;5019321;28;20040;-67
2022/01/04 08:31:37;;;;;;;44.25;30.27;;;;;;;5.89;96.82;98150.38;5050214;28;20492;-68
2022/01/04 08:34:03;;;;;;;45.83;30.50;;;;;;;5.83;96.59;98140.56;5016130;28;20073;-67
2022/01/04 08:36:29;;;;;;;47.63;31.40;;;;;;;5.65;96.94;98106.75;5041708;28;20034;-67
2022/01/04 08:38:56;;;;;;;40.75;29.35;;;;;;;5.94;97.56;98155.97;5022094;28;20048;-68
2022/01/04 08:41:21;;;;;;;46.10;30.40;;;;;;;6.03;97.29;98153.63;5004140;28;20175;-67
2022/01/04 08:43:47;;;;;;;38.58;29.15;;;;;;;5.98;96.47;98143.66;5045325;28;20108;-68
2022/01/04 08:46:13;;;;;;;44.50;29.48;;;;;;;5.58;96.96;98096.16;5010081;28;20038;-69
2022/01/04 08:48:39;;;;;;;41.42;27.48;;;;;;;5.99;95.88;98147.91;5033720;28;20918;-68
2022/01/04 08:51:04;;;;;;;39.72;26.52;;;;;;;6.01;95.74;98142.59;5016455;28;20029;-66
2022/01/04 08:53:30;;;;;;;41.15;29.10;;;;;;;5.99;94.82;98153.06;5014383;28;20040;-67
2022/01/04 08:56:01;;;;;;;40.58;28.70;;;;;;;5.89;95.82;98155.53;5017600;28;20037;-67
2022/01/04 08:58:26;;;;;;;37.03;26.73;;;;;;;5.64;94.83;98094.84;5045056;28;20052;-67
2022/01/04 09:00:51;;;;;;;39.47;26.85;;;;;;;5.66;94.80;98105.00;5049295;28;20029;-67
2022/01/04 09:03:17;;;;;;;40.10;28.33;;;;;;;5.99;95.23;98147.91;5014484;28;20028;-69
2022/01/04 09:05:42;;;;;;;40.10;28.92;;;;;;;5.92;94.71;98139.00;4947160;28;20756;-68
2022/01/04 09:08:08;;;;;;;41.58;28.23;;;;;;;6.06;95.04;98154.19;5030997;28;20029;-68
2022/01/04 09:10:34;;;;;;;42.13;27.85;;;;;;;6.01;94.55;98140.03;5044269;28;20195;-68
2022/01/04 09:13:06;;;;;;;39.28;28.13;;;;;;;5.99;94.73;98134.16;5027614;28;20396;-68
2022/01/04 09:20:47;;;;;;;40.67;27.08;;;;;;;5.78;94.50;98078.19;5014854;28;20125;-66
2022/01/04 09:23:18;;;;;;;39.88;27.52;;;;;;;6.14;95.16;98135.47;5019491;28;20029;-68
2022/01/04 09:25:44;;;;;;;38.80;27.02;;;;;;;6.11;94.78;98133.94;5035371;28;20033;-67
2022/01/04 09:28:09;;;;;;;39.28;25.17;;;;;;;6.16;94.16;98131.81;5016351;28;20083;-66
2022/01/04 09:30:35;;;;;;;34.47;24.63;;;;;;;6.10;94.52;98122.00;5015370;28;20041;-66
2022/01/04 09:33:02;;;;;;;42.03;28.10;;;;;;;6.04;95.06;98106.19;5052387;28;20033;-66
2022/01/04 09:35:28;;;;;;;37.70;26.10;;;;;;;6.16;94.04;98120.66;5017247;28;20030;-67
2022/01/04 09:37:53;;;;;;;37.67;26.27;;;;;;;6.17;94.32;98114.56;5029445;28;20044;-66
2022/01/04 09:40:19;;;;;;;39.92;27.77;;;;;;;6.14;95.19;98102.72;5003255;28;20387;-66
2022/01/04 09:42:44;;;;;;;44.55;28.63;;;;;;;5.86;94.84;98060.31;5048577;28;20035;-67
2022/01/04 09:45:10;;;;;;;41.88;28.20;;;;;;;6.11;95.60;98087.47;5021872;28;20029;-66
2022/01/04 09:47:36;;;;;;;45.85;27.55;;;;;;;6.16;96.11;98098.25;5047802;28;20123;-66
2022/01/04 09:50:08;;;;;;;43.85;29.40;;;;;;;6.16;96.47;98115.50;5005512;28;20422;-66
2022/01/04 09:52:35;;;;;;;45.22;30.92;;;;;;;6.11;96.86;98113.28;5017340;28;20049;-67
2022/01/04 09:55:01;;;;;;;42.28;30.02;;;;;;;6.10;96.31;98109.09;4969467;28;20108;-67
2022/01/04 09:57:26;;;;;;;40.53;29.95;;;;;;;6.09;95.81;98106.63;5020685;28;20033;-66
2022/01/04 09:59:52;;;;;;;41.70;28.75;;;;;;;6.12;96.03;98119.28;5052371;28;20029;-67
2022/01/04 10:02:19;;;;;;;41.17;28.02;;;;;;;6.22;95.08;98117.56;5019104;28;21311;-68
2022/01/04 10:04:45;;;;;;;39.03;27.73;;;;;;;6.18;95.04;98111.03;5018499;28;20033;-67
2022/01/04 10:07:11;;;;;;;41.88;28.35;;;;;;;6.27;94.89;98112.03;5020641;28;20029;-67
2022/01/04 10:09:45;;;;;;;41.00;28.02;;;;;;;5.79;94.96;98038.56;4998438;28;20153;-66
2022/01/04 10:12:16;;;;;;;38.50;27.38;;;;;;;6.38;94.74;98111.13;5013471;28;20400;-69
2022/01/04 10:14:44;;;;;;;39.13;27.63;;;;;;;6.44;95.02;98113.16;5002544;28;20989;-69
2022/01/04 10:17:32;;;;;;;39.47;27.17;;;;;;;6.51;94.61;98109.94;5010691;28;20022;-66
2022/01/04 10:19:59;;;;;;;34.72;26.27;;;;;;;6.55;94.28;98110.47;5018905;28;20063;-67
2022/01/04 10:22:34;;;;;;;36.88;26.20;;;;;;;6.44;93.77;98108.81;5005854;28;20025;-68
2022/01/04 10:25:03;;;;;;;38.03;27.23;;;;;;;6.43;93.83;98111.56;4999304;28;20033;-67
2022/01/04 10:27:32;;;;;;;37.78;26.00;;;;;;;6.49;92.50;98103.28;5020830;28;20087;-68
2022/01/04 10:30:18;;;;;;;39.55;27.15;;;;;;;6.52;92.85;98096.06;5049857;28;20041;-69
2022/01/04 10:33:05;;;;;;;39.85;27.05;;;;;;;6.34;93.10;98061.50;5013550;28;20030;-67
2022/01/04 10:35:48;;;;;;;35.42;25.40;;;;;;;6.53;92.74;98086.56;5012179;28;20041;-67
2022/01/04 10:38:21;;;;;;;38.10;25.60;;;;;;;6.57;92.60;98077.63;5001780;28;20579;-66
2022/01/04 10:41:07;;;;;;;40.00;27.10;;;;;;;6.57;91.94;98082.78;4982630;28;20084;-68
2022/01/04 10:43:44;;;;;;;37.88;26.55;;;;;;;6.51;92.22;98066.00;5046157;28;20087;-67
2022/01/04 10:46:11;;;;;;;36.05;25.88;;;;;;;6.48;92.79;98061.13;5012785;28;20038;-67
2022/01/04 10:48:43;;;;;;;35.35;25.98;;;;;;;6.48;92.69;98049.97;5013064;28;20021;-67
2022/01/04 10:51:08;;;;;;;42.08;26.90;;;;;;;6.00;93.06;97968.03;5003150;28;20433;-66
2022/01/04 10:53:39;;;;;;;36.65;26.98;;;;;;;6.56;93.81;98063.06;5013619;28;20041;-66
2022/01/04 10:56:07;;;;;;;39.78;26.20;;;;;;;6.56;93.50;98049.31;5012898;28;20043;-65
2022/01/04 10:58:34;;;;;;;40.50;28.38;;;;;;;6.52;93.74;98039.25;4948916;28;20029;-67
2022/01/04 11:01:11;;;;;;;39.65;27.48;;;;;;;6.54;94.11;98031.38;5015515;28;20040;-68
2022/01/04 11:03:41;;;;;;;37.70;26.58;;;;;;;6.59;93.37;98016.28;5013468;28;20468;-66
2022/01/04 11:06:11;;;;;;;36.53;26.45;;;;;;;6.47;93.56;98018.16;5023619;28;20036;-66
2022/01/04 11:08:37;;;;;;;40.70;26.85;;;;;;;6.48;93.13;98021.56;5021100;28;20021;-66
2022/01/04 11:11:03;;;;;;;36.35;26.35;;;;;;;6.38;93.76;98016.38;4994796;28;20017;-67
2022/01/04 11:13:29;;;;;;;38.03;27.83;;;;;;;6.06;94.33;97949.44;4978445;28;20034;-66
2022/01/04 11:15:55;;;;;;;38.70;26.77;;;;;;;6.38;93.90;98000.88;5014816;28;20029;-68
2022/01/04 11:18:21;;;;;;;38.60;27.27;;;;;;;6.45;93.75;97996.00;5013444;28;20041;-68
2022/01/04 11:20:46;;;;;;;36.65;24.88;;;;;;;6.44;93.79;98002.91;5012396;28;20583;-66
2022/01/04 11:23:13;;;;;;;36.60;25.00;;;;;;;6.53;92.73;98002.16;5009047;28;20261;-68
2022/01/04 11:25:43;;;;;;;35.58;25.40;;;;;;;6.51;93.56;97992.88;5017035;28;20029;-67
2022/01/04 11:28:09;;;;;;;36.92;25.40;;;;;;;6.50;93.11;97984.31;5017330;28;20029;-67
2022/01/04 11:31:03;;;;;;;35.00;24.83;;;;;;;6.58;93.09;97996.56;4992463;28;20055;-68